Time;durP1;ratioP1;P1;durP2;ratioP2;P2;SDS_P1;SDS_P2;PMS_P1;PMS_P2;Temp;Humidity;BMP_temperature;BMP_pressure;BME280_temperature;BME280_humidity;BME280_pressure;Samples;Min_cycle;Max_cycle;Signal;HPM_P1;HPM_P2
2022/01/08 00:02:25;;;;;;;9.40;6.40;;;;;;;;;;5031901;28;20140;-76
2022/01/08 00:04:53;;;;;;;11.88;7.00;;;;;;;;;;5032034;28;20076;-76
2022/01/08 00:07:20;;;;;;;10.50;6.63;;;;;;;;;;5033184;28;20038;-76
2022/01/08 00:09:49;;;;;;;11.43;7.03;;;;;;;;;;5033214;28;20045;-76
2022/01/08 00:12:17;;;;;;;11.98;7.22;;;;;;;;;;5031094;28;20499;-76
2022/01/08 00:15:10;;;;;;;11.43;6.72;;;;;;;;;;5033227;28;20052;-76
2022/01/08 00:17:40;;;;;;;10.80;6.57;;;;;;;;;;5033099;28;20076;-76
2022/01/08 00:20:09;;;;;;;12.40;6.82;;;;;;;;;;5032721;28;20492;-76
2022/01/08 00:22:37;;;;;;;12.50;7.40;;;;;;;;;;5033551;28;20045;-76
2022/01/08 00:25:09;;;;;;;11.85;7.10;;;;;;;;;;5033268;28;20060;-76
2022/01/08 00:27:42;;;;;;;13.05;6.75;;;;;;;;;;5031781;28;20482;-76
2022/01/08 00:30:11;;;;;;;10.15;6.05;;;;;;;;;;5033051;28;20045;-76
2022/01/08 00:32:39;;;;;;;11.32;8.02;;;;;;;;;;5032376;28;20467;-75
2022/01/08 00:35:10;;;;;;;12.52;7.20;;;;;;;;;;5033092;28;20096;-76
2022/01/08 00:37:38;;;;;;;8.80;6.18;;;;;;;;;;5031693;28;20144;-75
2022/01/08 00:43:03;;;;;;;10.95;6.40;;;;;;;;;;5033005;28;20468;-76
2022/01/08 00:45:55;;;;;;;11.27;6.47;;;;;;;;;;5032999;28;20045;-76
2022/01/08 00:48:27;;;;;;;12.18;7.10;;;;;;;;;;5030702;28;20103;-75
2022/01/08 00:50:58;;;;;;;10.65;6.80;;;;;;;;;;5033025;28;20069;-76
2022/01/08 00:53:29;;;;;;;10.00;6.35;;;;;;;;;;5035305;28;20416;-75
2022/01/08 00:56:05;;;;;;;12.90;6.95;;;;;;;;;;5036371;28;20084;-76
2022/01/08 00:58:32;;;;;;;11.77;7.03;;;;;;;;;;5036458;28;20049;-75
2022/01/08 01:01:25;;;;;;;14.35;7.88;;;;;;;;;;5034330;28;20794;-76
2022/01/08 01:03:53;;;;;;;9.68;5.97;;;;;;;;;;5034951;28;20069;-76
2022/01/08 01:06:20;;;;;;;12.38;7.15;;;;;;;;;;5036066;28;20041;-76
2022/01/08 01:08:50;;;;;;;11.25;6.88;;;;;;;;;;5035950;28;20054;-76
2022/01/08 01:11:19;;;;;;;11.70;6.97;;;;;;;;;;5036293;28;20041;-76
2022/01/08 01:13:49;;;;;;;13.23;7.50;;;;;;;;;;5036396;28;20042;-76
2022/01/08 01:16:16;;;;;;;11.63;7.38;;;;;;;;;;5035269;28;20033;-76
2022/01/08 01:18:49;;;;;;;12.07;7.32;;;;;;;;;;5035097;28;20068;-76
2022/01/08 01:21:20;;;;;;;11.77;7.43;;;;;;;;;;5035074;28;20466;-75
2022/01/08 01:23:50;;;;;;;12.55;7.47;;;;;;;;;;5035097;28;20085;-75
2022/01/08 01:26:58;;;;;;;9.32;6.03;;;;;;;;;;5034550;28;20053;-75
2022/01/08 01:29:56;;;;;;;13.02;7.05;;;;;;;;;;5034162;28;20096;-75
2022/01/08 01:41:29;;;;;;;12.70;7.82;;;;;;;;;;5035559;28;20116;-75
2022/01/08 01:49:56;;;;;;;15.23;8.23;;;;;;;;;;5035091;28;20546;-75
2022/01/08 01:59:27;;;;;;;12.77;7.10;;;;;;;;;;5035140;28;20400;-75
2022/01/08 02:05:39;;;;;;;15.25;8.02;;;;;;;;;;5035396;28;20408;-76
2022/01/08 02:08:09;;;;;;;14.25;8.68;;;;;;;;;;5035093;28;20060;-75
2022/01/08 02:10:42;;;;;;;14.35;8.68;;;;;;;;;;5035294;28;20124;-75
2022/01/08 02:13:10;;;;;;;17.05;8.85;;;;;;;;;;5034511;28;20579;-75
2022/01/08 02:15:50;;;;;;;14.90;8.20;;;;;;;;;;5035491;28;20155;-75
2022/01/08 02:18:21;;;;;;;16.58;8.82;;;;;;;;;;5033671;28;20459;-75
2022/01/08 02:20:51;;;;;;;18.90;9.40;;;;;;;;;;5033499;28;20136;-75
2022/01/08 02:23:19;;;;;;;12.63;7.32;;;;;;;;;;5034785;28;20396;-75
2022/01/08 02:25:50;;;;;;;17.17;9.23;;;;;;;;;;5033661;28;20049;-75
2022/01/08 02:28:23;;;;;;;15.00;9.43;;;;;;;;;;5034638;28;20120;-74
2022/01/08 02:30:53;;;;;;;17.10;8.43;;;;;;;;;;5033251;28;20042;-75
2022/01/08 02:33:28;;;;;;;15.85;9.38;;;;;;;;;;5034458;28;20484;-75
2022/01/08 02:35:57;;;;;;;14.82;9.23;;;;;;;;;;5033172;28;20569;-75
2022/01/08 02:38:29;;;;;;;15.88;10.32;;;;;;;;;;5034707;28;20096;-75
2022/01/08 02:41:02;;;;;;;16.95;9.75;;;;;;;;;;5034536;28;20087;-75
2022/01/08 02:43:34;;;;;;;17.73;10.07;;;;;;;;;;5034267;28;20033;-75
2022/01/08 02:46:04;;;;;;;16.63;8.60;;;;;;;;;;5034501;28;20125;-75
2022/01/08 02:48:34;;;;;;;17.50;8.70;;;;;;;;;;5034566;28;20049;-75
2022/01/08 02:51:03;;;;;;;18.63;9.82;;;;;;;;;;5032855;28;20038;-75
2022/01/08 02:53:34;;;;;;;18.52;10.20;;;;;;;;;;5033755;28;20046;-75
2022/01/08 02:56:02;;;;;;;17.80;9.70;;;;;;;;;;5034283;28;20118;-75
2022/01/08 02:58:29;;;;;;;18.17;9.20;;;;;;;;;;5032682;28;20056;-75
2022/01/08 03:01:01;;;;;;;19.67;10.25;;;;;;;;;;5033838;28;20051;-75
2022/01/08 03:03:29;;;;;;;19.35;10.65;;;;;;;;;;5034520;28;20041;-74
2022/01/08 03:06:21;;;;;;;19.33;11.15;;;;;;;;;;5032586;28;20056;-75
2022/01/08 03:12:52;;;;;;;14.98;7.47;;;;;;;;;;5033888;28;20025;-74
2022/01/08 03:15:23;;;;;;;19.58;10.77;;;;;;;;;;5031008;28;20492;-74
2022/01/08 03:18:09;;;;;;;16.67;10.40;;;;;;;;;;5033973;28;20045;-73
2022/01/08 03:21:12;;;;;;;18.30;10.55;;;;;;;;;;5033463;28;20037;-75
2022/01/08 03:23:50;;;;;;;18.45;10.63;;;;;;;;;;5033666;28;20045;-75
2022/01/08 03:26:24;;;;;;;18.35;9.98;;;;;;;;;;5032381;28;20458;-74
2022/01/08 03:28:51;;;;;;;17.80;9.98;;;;;;;;;;5033558;28;20052;-74
2022/01/08 03:31:26;;;;;;;18.70;9.35;;;;;;;;;;5033647;28;20041;-75
2022/01/08 03:33:58;;;;;;;17.13;9.95;;;;;;;;;;5033777;28;20050;-75
2022/01/08 03:36:26;;;;;;;21.17;10.32;;;;;;;;;;5033670;28;20121;-74
2022/01/08 03:39:20;;;;;;;19.73;10.95;;;;;;;;;;5033976;28;20423;-75
2022/01/08 03:42:13;;;;;;;20.52;11.38;;;;;;;;;;5031253;28;20053;-75
2022/01/08 03:51:12;;;;;;;15.95;9.13;;;;;;;;;;5032522;28;20056;-75
2022/01/08 03:53:44;;;;;;;19.67;11.23;;;;;;;;;;5033472;28;20057;-75
2022/01/08 03:56:15;;;;;;;20.73;11.60;;;;;;;;;;5033591;28;20099;-75
2022/01/08 03:58:43;;;;;;;19.25;10.10;;;;;;;;;;5033155;28;20060;-74
2022/01/08 04:01:35;;;;;;;17.33;10.52;;;;;;;;;;5033441;28;20049;-75
2022/01/08 04:04:28;;;;;;;17.92;9.52;;;;;;;;;;5032019;28;20053;-75
2022/01/08 04:06:57;;;;;;;19.40;11.02;;;;;;;;;;5031790;28;20389;-75
2022/01/08 04:09:24;;;;;;;16.95;9.48;;;;;;;;;;5031950;28;20041;-75
2022/01/08 04:11:58;;;;;;;16.33;9.77;;;;;;;;;;5031884;28;20132;-75
2022/01/08 04:14:42;;;;;;;17.08;10.00;;;;;;;;;;5031886;28;20477;-75
2022/01/08 04:17:16;;;;;;;15.98;9.15;;;;;;;;;;5033107;28;20500;-75
2022/01/08 04:19:44;;;;;;;19.05;10.52;;;;;;;;;;5031689;28;20064;-75
2022/01/08 04:22:37;;;;;;;18.80;10.48;;;;;;;;;;5031894;28;20451;-75
2022/01/08 04:31:41;;;;;;;18.83;10.95;;;;;;;;;;5035154;28;20049;-75
2022/01/08 04:34:33;;;;;;;20.70;10.90;;;;;;;;;;5036873;28;20048;-75
2022/01/08 04:37:06;;;;;;;20.60;11.75;;;;;;;;;;5035364;28;20045;-75
2022/01/08 04:39:35;;;;;;;17.88;10.40;;;;;;;;;;5036692;28;20480;-74
2022/01/08 04:42:06;;;;;;;21.45;11.13;;;;;;;;;;5037110;28;20377;-75
2022/01/08 04:44:37;;;;;;;19.45;10.48;;;;;;;;;;5036435;28;20051;-75
2022/01/08 04:47:05;;;;;;;17.02;10.27;;;;;;;;;;5036403;28;20519;-75
2022/01/08 04:49:36;;;;;;;19.30;10.95;;;;;;;;;;5036935;28;20038;-75
2022/01/08 04:52:14;;;;;;;19.30;11.30;;;;;;;;;;5036451;28;20480;-75
2022/01/08 04:54:42;;;;;;;19.38;10.65;;;;;;;;;;5036395;28;20041;-75
2022/01/08 04:57:35;;;;;;;19.88;10.85;;;;;;;;;;5035319;28;20049;-74
2022/01/08 05:00:05;;;;;;;16.55;9.80;;;;;;;;;;5036140;28;20050;-75
2022/01/08 05:02:35;;;;;;;16.90;10.00;;;;;;;;;;5035078;28;20049;-75
2022/01/08 05:05:05;;;;;;;19.77;11.82;;;;;;;;;;5036679;28;20052;-75
2022/01/08 05:07:34;;;;;;;18.55;10.45;;;;;;;;;;5036183;28;20049;-75
2022/01/08 05:10:04;;;;;;;19.08;10.95;;;;;;;;;;5034840;28;20045;-75
2022/01/08 05:12:34;;;;;;;23.10;11.52;;;;;;;;;;5035158;28;20037;-74
2022/01/08 05:15:27;;;;;;;21.38;11.02;;;;;;;;;;5036174;28;20041;-76
2022/01/08 05:17:57;;;;;;;18.80;10.75;;;;;;;;;;5034797;28;20084;-75
2022/01/08 05:20:38;;;;;;;21.60;11.15;;;;;;;;;;5036030;28;20040;-76
2022/01/08 05:23:07;;;;;;;21.77;11.30;;;;;;;;;;5034697;28;20140;-76
2022/01/08 05:25:39;;;;;;;19.52;11.88;;;;;;;;;;5035849;28;20052;-76
2022/01/08 05:28:08;;;;;;;20.45;11.98;;;;;;;;;;5035689;28;20075;-76
2022/01/08 05:30:40;;;;;;;20.40;11.25;;;;;;;;;;5034687;28;20041;-76
2022/01/08 05:33:10;;;;;;;19.77;10.82;;;;;;;;;;5033994;28;20073;-75
2022/01/08 05:36:11;;;;;;;21.73;12.02;;;;;;;;;;5036075;28;20049;-76
2022/01/08 05:38:39;;;;;;;19.92;11.23;;;;;;;;;;5033463;28;20164;-75
2022/01/08 05:41:32;;;;;;;21.23;11.43;;;;;;;;;;5035568;28;20120;-77
2022/01/08 05:44:00;;;;;;;21.02;11.73;;;;;;;;;;5036020;28;20140;-79
2022/01/08 05:46:30;;;;;;;23.40;11.52;;;;;;;;;;5034910;28;20053;-77
2022/01/08 05:49:01;;;;;;;19.85;11.85;;;;;;;;;;5034629;28;20444;-78
2022/01/08 05:51:29;;;;;;;21.77;11.90;;;;;;;;;;5034890;28;20048;-78
2022/01/08 05:53:57;;;;;;;20.02;11.77;;;;;;;;;;5033583;28;20095;-78
2022/01/08 05:56:24;;;;;;;19.42;10.55;;;;;;;;;;5034757;28;20124;-77
2022/01/08 05:58:52;;;;;;;23.25;11.68;;;;;;;;;;5034592;28;20045;-78
2022/01/08 06:01:19;;;;;;;20.58;11.95;;;;;;;;;;5057476;28;20080;-79
2022/01/08 06:04:12;;;;;;;20.77;11.75;;;;;;;;;;5052355;28;20033;-77
2022/01/08 06:10:40;;;;;;;17.02;9.70;;;;;;;;;;5036127;28;20155;-77
2022/01/08 06:13:35;;;;;;;16.77;10.27;;;;;;;;;;5052622;28;20041;-77
2022/01/08 06:16:03;;;;;;;25.98;12.32;;;;;;;;;;5049119;28;20132;-77
2022/01/08 06:18:31;;;;;;;18.10;10.60;;;;;;;;;;5038346;28;20047;-77
2022/01/08 06:20:59;;;;;;;18.17;10.00;;;;;;;;;;5047741;28;20522;-77
2022/01/08 06:23:28;;;;;;;19.02;11.02;;;;;;;;;;5040600;28;20396;-77
2022/01/08 06:25:55;;;;;;;18.90;11.52;;;;;;;;;;5045568;28;20056;-78
2022/01/08 06:28:26;;;;;;;19.58;10.80;;;;;;;;;;5044080;28;20389;-77
2022/01/08 06:30:55;;;;;;;16.40;9.82;;;;;;;;;;5049734;28;20061;-78
2022/01/08 06:33:23;;;;;;;20.02;11.40;;;;;;;;;;5047216;28;20041;-78
2022/01/08 06:36:09;;;;;;;15.75;9.80;;;;;;;;;;5041184;28;20459;-77
2022/01/08 06:38:41;;;;;;;18.90;9.68;;;;;;;;;;5030362;28;20074;-77
2022/01/08 06:41:20;;;;;;;18.42;10.27;;;;;;;;;;5045709;28;20033;-77
2022/01/08 06:43:51;;;;;;;21.15;10.70;;;;;;;;;;5033339;28;20041;-79
2022/01/08 06:46:19;;;;;;;18.45;10.18;;;;;;;;;;5033596;28;20052;-77
2022/01/08 06:48:47;;;;;;;19.02;10.65;;;;;;;;;;5038982;28;20033;-77
2022/01/08 06:51:14;;;;;;;18.40;10.48;;;;;;;;;;5046365;28;20037;-77
2022/01/08 06:53:46;;;;;;;18.33;9.45;;;;;;;;;;5041635;28;20104;-76
2022/01/08 06:56:17;;;;;;;18.20;9.57;;;;;;;;;;5038000;28;20044;-78
2022/01/08 06:58:46;;;;;;;17.00;11.13;;;;;;;;;;5045188;28;20478;-77
2022/01/08 07:01:21;;;;;;;16.17;9.38;;;;;;;;;;5052504;28;20051;-77
2022/01/08 07:03:51;;;;;;;19.42;11.35;;;;;;;;;;5053845;28;20094;-78
2022/01/08 07:06:19;;;;;;;14.93;8.95;;;;;;;;;;5052655;28;20044;-76
2022/01/08 07:09:00;;;;;;;20.05;11.02;;;;;;;;;;5053730;28;20051;-74
2022/01/08 07:11:28;;;;;;;20.92;10.70;;;;;;;;;;5043076;28;20037;-73
2022/01/08 07:14:21;;;;;;;19.10;10.20;;;;;;;;;;5042498;28;20431;-73
2022/01/08 07:16:49;;;;;;;19.15;10.55;;;;;;;;;;5013017;28;20150;-72
2022/01/08 07:19:21;;;;;;;17.17;9.88;;;;;;;;;;5013530;28;20044;-72
2022/01/08 07:21:48;;;;;;;18.50;10.02;;;;;;;;;;5012540;28;20513;-76
2022/01/08 07:24:19;;;;;;;20.40;10.45;;;;;;;;;;5014277;28;20034;-74
2022/01/08 07:26:52;;;;;;;14.45;8.50;;;;;;;;;;5012750;28;20052;-74
2022/01/08 07:29:20;;;;;;;17.30;10.10;;;;;;;;;;5014127;28;20056;-77
2022/01/08 07:31:52;;;;;;;20.52;11.15;;;;;;;;;;5014150;28;20038;-76
2022/01/08 07:34:20;;;;;;;17.15;10.63;;;;;;;;;;5024848;28;20037;-76
2022/01/08 07:37:13;;;;;;;17.70;10.63;;;;;;;;;;5039888;28;20381;-78
2022/01/08 07:39:47;;;;;;;18.30;10.65;;;;;;;;;;5033858;28;20038;-76
2022/01/08 07:42:15;;;;;;;16.60;9.80;;;;;;;;;;5032261;28;20132;-77
2022/01/08 07:44:44;;;;;;;17.80;9.90;;;;;;;;;;5015285;28;20500;-76
2022/01/08 07:47:15;;;;;;;18.33;10.95;;;;;;;;;;5033979;28;20045;-75
2022/01/08 07:49:42;;;;;;;14.45;9.02;;;;;;;;;;5033553;28;20120;-77
2022/01/08 07:52:35;;;;;;;17.13;10.23;;;;;;;;;;5031956;28;20049;-75
2022/01/08 07:55:33;;;;;;;20.30;10.45;;;;;;;;;;5033407;28;20500;-76
2022/01/08 07:58:00;;;;;;;19.10;10.70;;;;;;;;;;5031207;28;20568;-76
2022/01/08 08:00:53;;;;;;;17.58;9.85;;;;;;;;;;5012921;28;20042;-74
2022/01/08 08:03:25;;;;;;;15.43;10.18;;;;;;;;;;5013378;28;20485;-74
2022/01/08 08:09:13;;;;;;;15.77;9.20;;;;;;;;;;5013892;28;20393;-84
2022/01/08 08:11:42;;;;;;;15.82;9.35;;;;;;;;;;5012788;28;20485;-85
2022/01/08 08:14:34;;;;;;;17.27;10.73;;;;;;;;;;5013440;28;20412;-75
2022/01/08 08:17:03;;;;;;;19.33;10.90;;;;;;;;;;5013690;28;20448;-81
2022/01/08 08:19:31;;;;;;;17.73;10.00;;;;;;;;;;5011686;28;20049;-82
2022/01/08 08:22:05;;;;;;;22.27;11.05;;;;;;;;;;5012034;28;20095;-82
2022/01/08 08:24:33;;;;;;;18.40;11.18;;;;;;;;;;5013467;28;20451;-81
2022/01/08 08:27:05;;;;;;;19.92;10.65;;;;;;;;;;5013618;28;20042;-82
2022/01/08 08:29:40;;;;;;;18.92;12.05;;;;;;;;;;5011924;28;20148;-82
2022/01/08 08:32:07;;;;;;;;;;;;;;;;;;5013918;28;20489;-82
2022/01/08 08:34:36;;;;;;;17.90;9.65;;;;;;;;;;5011586;28;20280;-81
2022/01/08 08:37:14;;;;;;;18.85;11.63;;;;;;;;;;5013526;28;20121;-76
2022/01/08 08:40:06;;;;;;;13.13;8.45;;;;;;;;;;5013227;28;20041;-74
2022/01/08 08:42:35;;;;;;;17.65;9.40;;;;;;;;;;5027876;28;20056;-77
2022/01/08 08:45:06;;;;;;;16.88;9.77;;;;;;;;;;5024005;28;20037;-76
2022/01/08 08:47:34;;;;;;;16.08;10.18;;;;;;;;;;5026493;28;20499;-78
2022/01/08 08:50:03;;;;;;;15.38;9.52;;;;;;;;;;5022803;28;20041;-77
2022/01/08 08:52:30;;;;;;;17.45;10.30;;;;;;;;;;5024324;28;20046;-78
2022/01/08 08:55:01;;;;;;;17.10;10.32;;;;;;;;;;5018597;28;20046;-79
2022/01/08 08:57:29;;;;;;;19.35;11.18;;;;;;;;;;5012842;28;20068;-75
2022/01/08 09:00:01;;;;;;;14.77;10.23;;;;;;;;;;5059862;28;20404;-75
2022/01/08 09:02:28;;;;;;;17.95;11.07;;;;;;;;;;5034123;28;20091;-75
2022/01/08 09:04:56;;;;;;;19.90;12.23;;;;;;;;;;5039392;28;20044;-76
2022/01/08 09:07:23;;;;;;;20.25;11.70;;;;;;;;;;5043350;28;20383;-76
2022/01/08 09:09:52;;;;;;;19.92;12.00;;;;;;;;;;5046854;28;20126;-75
2022/01/08 09:12:19;;;;;;;18.40;11.55;;;;;;;;;;5043370;28;20411;-75
2022/01/08 09:14:47;;;;;;;17.15;10.77;;;;;;;;;;5038789;28;20033;-75
2022/01/08 09:17:15;;;;;;;19.27;11.70;;;;;;;;;;5042418;28;20041;-75
2022/01/08 09:19:44;;;;;;;16.38;8.68;;;;;;;;;;5048268;28;20407;-75
2022/01/08 09:22:12;;;;;;;17.60;11.27;;;;;;;;;;5035179;28;20052;-75
2022/01/08 09:24:44;;;;;;;19.15;11.40;;;;;;;;;;5032917;28;20079;-76
2022/01/08 09:27:14;;;;;;;18.30;10.38;;;;;;;;;;5017510;28;20055;-76
2022/01/08 09:30:06;;;;;;;18.55;10.98;;;;;;;;;;5033737;28;20045;-73
2022/01/08 09:32:34;;;;;;;17.58;10.10;;;;;;;;;;5035075;28;20064;-75
2022/01/08 09:35:02;;;;;;;17.33;10.45;;;;;;;;;;5035224;28;20080;-76
2022/01/08 09:37:30;;;;;;;18.75;11.55;;;;;;;;;;5035514;28;20428;-76
2022/01/08 09:40:00;;;;;;;17.17;10.90;;;;;;;;;;5067794;28;20041;-81
2022/01/08 09:42:28;;;;;;;20.95;11.90;;;;;;;;;;5034540;28;20072;-80
2022/01/08 09:44:56;;;;;;;21.50;11.80;;;;;;;;;;5035703;28;20041;-81
2022/01/08 09:47:24;;;;;;;18.58;10.65;;;;;;;;;;5040572;28;20048;-79
2022/01/08 09:49:55;;;;;;;17.10;9.85;;;;;;;;;;5035248;28;20033;-79
2022/01/08 09:52:43;;;;;;;21.65;11.45;;;;;;;;;;5035639;28;20072;-80
2022/01/08 09:55:13;;;;;;;18.90;10.13;;;;;;;;;;5034314;28;20037;-79
2022/01/08 09:57:45;;;;;;;18.30;11.00;;;;;;;;;;5034996;28;20045;-73
2022/01/08 10:00:18;;;;;;;19.88;11.18;;;;;;;;;;5033989;28;20056;-78
2022/01/08 10:02:48;;;;;;;26.83;14.95;;;;;;;;;;5033939;28;20474;-77
2022/01/08 10:05:16;;;;;;;21.38;13.40;;;;;;;;;;5033626;28;20049;-82
2022/01/08 10:08:11;;;;;;;22.95;11.63;;;;;;;;;;5044084;28;20459;-79
2022/01/08 10:10:57;;;;;;;20.05;11.90;;;;;;;;;;5037390;28;20072;-80
2022/01/08 10:13:32;;;;;;;18.48;11.50;;;;;;;;;;5045170;28;20092;-80
2022/01/08 10:19:36;;;;;;;25.48;15.52;;;;;;;;;;5033693;28;20496;-73
2022/01/08 10:22:19;;;;;;;24.50;13.95;;;;;;;;;;5035192;28;20065;-73
2022/01/08 10:28:31;;;;;;;75.22;34.17;;;;;;;;;;5017094;28;20362;-73
2022/01/08 10:31:25;;;;;;;25.70;14.52;;;;;;;;;;5029531;28;20045;-73
2022/01/08 10:34:11;;;;;;;22.60;12.75;;;;;;;;;;5032305;28;20132;-73
2022/01/08 10:37:04;;;;;;;16.60;10.32;;;;;;;;;;5034692;28;20087;-73
2022/01/08 10:39:57;;;;;;;24.73;13.85;;;;;;;;;;5034206;28;20124;-74
2022/01/08 10:42:24;;;;;;;41.70;23.75;;;;;;;;;;5034537;28;20442;-73
2022/01/08 10:44:52;;;;;;;27.88;15.82;;;;;;;;;;5034079;28;20041;-73
2022/01/08 10:47:22;;;;;;;20.50;10.98;;;;;;;;;;5034478;28;20042;-73
2022/01/08 10:50:06;;;;;;;21.00;12.40;;;;;;;;;;5034488;28;20056;-73
2022/01/08 10:52:48;;;;;;;17.38;10.43;;;;;;;;;;5034305;28;20045;-73
2022/01/08 10:55:30;;;;;;;118.85;58.83;;;;;;;;;;5034089;28;20042;-73
2022/01/08 10:57:58;;;;;;;17.48;10.98;;;;;;;;;;5034364;28;20092;-73
2022/01/08 11:00:31;;;;;;;18.13;11.13;;;;;;;;;;5034340;28;20041;-73
2022/01/08 11:03:02;;;;;;;17.67;11.00;;;;;;;;;;5033909;28;20508;-73
2022/01/08 11:05:32;;;;;;;18.83;10.63;;;;;;;;;;5034083;28;20045;-73
2022/01/08 11:08:13;;;;;;;22.08;13.35;;;;;;;;;;5034291;28;20041;-73
2022/01/08 11:10:42;;;;;;;18.27;11.70;;;;;;;;;;5032871;28;20102;-73
2022/01/08 11:13:14;;;;;;;19.63;10.90;;;;;;;;;;5032741;28;20043;-73
2022/01/08 11:15:51;;;;;;;16.70;10.90;;;;;;;;;;5033915;28;20407;-73
2022/01/08 11:18:44;;;;;;;18.25;12.05;;;;;;;;;;5032459;28;20092;-73
2022/01/08 11:21:12;;;;;;;18.92;11.10;;;;;;;;;;5066131;28;20042;-73
2022/01/08 11:24:04;;;;;;;16.67;9.70;;;;;;;;;;5033899;28;20052;-73
2022/01/08 11:26:38;;;;;;;17.65;10.77;;;;;;;;;;5034186;28;20069;-73
2022/01/08 11:29:06;;;;;;;22.83;12.30;;;;;;;;;;5038009;28;20064;-74
2022/01/08 11:31:34;;;;;;;17.45;11.45;;;;;;;;;;5032099;28;20037;-74
2022/01/08 11:34:08;;;;;;;19.42;11.35;;;;;;;;;;5033306;28;20558;-73
2022/01/08 11:36:36;;;;;;;20.55;11.40;;;;;;;;;;5029053;28;20539;-73
2022/01/08 11:39:03;;;;;;;19.50;11.82;;;;;;;;;;5032388;28;20464;-72
2022/01/08 11:41:31;;;;;;;20.35;11.93;;;;;;;;;;5064786;28;20053;-73
2022/01/08 11:43:59;;;;;;;18.70;12.23;;;;;;;;;;5031836;28;20049;-72
2022/01/08 11:46:27;;;;;;;20.02;12.60;;;;;;;;;;5030630;28;20064;-72
2022/01/08 11:48:55;;;;;;;19.55;11.88;;;;;;;;;;5031350;28;20084;-73
2022/01/08 11:51:24;;;;;;;19.33;12.75;;;;;;;;;;5032004;28;20037;-74
2022/01/08 11:53:52;;;;;;;18.20;11.75;;;;;;;;;;5033393;28;20795;-73
2022/01/08 11:56:42;;;;;;;22.63;13.10;;;;;;;;;;5033006;28;20060;-73
2022/01/08 11:59:15;;;;;;;18.00;10.95;;;;;;;;;;5032848;28;20053;-73
2022/01/08 12:01:46;;;;;;;22.90;12.18;;;;;;;;;;5033096;28;20433;-73
2022/01/08 12:04:26;;;;;;;20.90;12.90;;;;;;;;;;5031430;28;20128;-73
2022/01/08 12:06:55;;;;;;;18.50;12.20;;;;;;;;;;5031624;28;20079;-73
2022/01/08 12:09:28;;;;;;;24.38;14.73;;;;;;;;;;5031609;28;20052;-73
2022/01/08 12:12:04;;;;;;;26.10;13.90;;;;;;;;;;5031178;28;20080;-73
2022/01/08 12:14:46;;;;;;;24.85;14.40;;;;;;;;;;5031531;28;20042;-73
2022/01/08 12:17:44;;;;;;;21.13;13.18;;;;;;;;;;5026393;28;20052;-73
2022/01/08 12:20:12;;;;;;;24.90;14.90;;;;;;;;;;5044948;28;20050;-73
2022/01/08 12:22:40;;;;;;;23.10;14.88;;;;;;;;;;5011220;28;20046;-74
2022/01/08 12:25:32;;;;;;;23.90;14.02;;;;;;;;;;5023374;28;20084;-74
2022/01/08 12:28:05;;;;;;;20.42;12.75;;;;;;;;;;5036374;28;20069;-73
2022/01/08 12:30:35;;;;;;;23.15;13.52;;;;;;;;;;5030177;28;20034;-73
2022/01/08 12:33:17;;;;;;;18.70;13.20;;;;;;;;;;5026866;28;20038;-74
2022/01/08 12:35:45;;;;;;;19.13;12.98;;;;;;;;;;5018674;28;20077;-74
2022/01/08 12:38:42;;;;;;;25.95;14.45;;;;;;;;;;5025564;28;20045;-74
2022/01/08 12:41:21;;;;;;;24.25;15.38;;;;;;;;;;5032275;28;20458;-74
2022/01/08 12:43:50;;;;;;;23.90;14.45;;;;;;;;;;5032836;28;20503;-73
2022/01/08 12:46:25;;;;;;;22.75;14.32;;;;;;;;;;5033788;28;20554;-73
2022/01/08 12:48:55;;;;;;;;;;;;;;;;;;5069066;28;20136;-73
2022/01/08 12:51:26;;;;;;;21.55;13.15;;;;;;;;;;5036674;28;20387;-73
2022/01/08 12:54:16;;;;;;;23.45;13.30;;;;;;;;;;5036592;28;20549;-74
2022/01/08 12:56:50;;;;;;;23.13;13.95;;;;;;;;;;5036849;28;20125;-72
2022/01/08 12:59:43;;;;;;;27.42;15.88;;;;;;;;;;5036214;28;20057;-73
2022/01/08 13:02:14;;;;;;;23.50;14.43;;;;;;;;;;5036332;28;20488;-73
2022/01/08 13:05:03;;;;;;;23.27;14.80;;;;;;;;;;5036327;28;20095;-73
2022/01/08 13:07:31;;;;;;;22.90;14.57;;;;;;;;;;5036074;28;20072;-74
2022/01/08 13:10:18;;;;;;;24.60;14.45;;;;;;;;;;5034139;28;20117;-74
2022/01/08 13:13:11;;;;;;;25.35;14.63;;;;;;;;;;5035586;28;20088;-74
2022/01/08 13:15:39;;;;;;;24.05;14.82;;;;;;;;;;5031037;28;20061;-74
2022/01/08 13:18:23;;;;;;;22.15;14.07;;;;;;;;;;5036461;28;20499;-72
2022/01/08 13:21:05;;;;;;;23.30;14.50;;;;;;;;;;5035453;28;20152;-72
2022/01/08 13:23:42;;;;;;;25.33;15.13;;;;;;;;;;5034055;28;20128;-72
2022/01/08 13:26:09;;;;;;;23.35;14.02;;;;;;;;;;5035634;28;20060;-71
2022/01/08 13:28:48;;;;;;;27.63;16.33;;;;;;;;;;5034721;28;20037;-72
2022/01/08 13:31:47;;;;;;;26.27;15.95;;;;;;;;;;5034463;28;20038;-74
2022/01/08 13:34:21;;;;;;;;;;;;;;;;;;5036437;28;20037;-72
2022/01/08 13:36:58;;;;;;;22.20;13.00;;;;;;;;;;5036398;28;19921;-72
2022/01/08 13:39:27;;;;;;;22.42;14.07;;;;;;;;;;5036141;28;20042;-72
2022/01/08 13:42:14;;;;;;;21.13;13.27;;;;;;;;;;5035768;28;20041;-72
2022/01/08 13:48:11;;;;;;;23.02;14.13;;;;;;;;;;5034420;28;20488;-73
2022/01/08 13:50:45;;;;;;;21.63;13.87;;;;;;;;;;5035392;28;20046;-73
2022/01/08 13:53:15;;;;;;;21.20;13.48;;;;;;;;;;5034591;28;20053;-72
2022/01/08 13:55:50;;;;;;;21.50;13.30;;;;;;;;;;5035774;28;20037;-73
2022/01/08 13:58:25;;;;;;;23.30;12.75;;;;;;;;;;5033752;28;20041;-72
2022/01/08 14:00:59;;;;;;;;;;;;;;;;;;5034418;28;20064;-72
2022/01/08 14:03:33;;;;;;;20.98;14.70;;;;;;;;;;5035536;28;20012;-72
2022/01/08 14:06:04;;;;;;;22.85;13.52;;;;;;;;;;5017188;28;20132;-72
2022/01/08 14:08:35;;;;;;;23.55;13.80;;;;;;;;;;5067618;28;20099;-72
2022/01/08 14:11:05;;;;;;;19.75;12.32;;;;;;;;;;5035359;28;20092;-72
2022/01/08 14:13:47;;;;;;;22.63;13.32;;;;;;;;;;5033848;28;20050;-72
2022/01/08 14:16:34;;;;;;;23.25;14.80;;;;;;;;;;5035081;28;20049;-72
2022/01/08 14:19:12;;;;;;;23.65;14.40;;;;;;;;;;5067297;28;20144;-72
2022/01/08 14:21:42;;;;;;;25.27;15.30;;;;;;;;;;5023036;28;20479;-72
2022/01/08 14:27:38;;;;;;;27.27;16.80;;;;;;;;;;5014922;28;20451;-71
2022/01/08 14:33:23;;;;;;;25.73;13.85;;;;;;;;;;5035452;28;20446;-71
2022/01/08 14:35:59;;;;;;;26.95;16.17;;;;;;;;;;5034939;28;20037;-72
2022/01/08 14:38:27;;;;;;;38.53;20.85;;;;;;;;;;5034563;28;20045;-71
2022/01/08 14:40:56;;;;;;;31.08;18.08;;;;;;;;;;5033450;28;20107;-71
2022/01/08 14:43:37;;;;;;;33.40;19.40;;;;;;;;;;5034733;28;20096;-71
2022/01/08 14:46:04;;;;;;;30.23;17.33;;;;;;;;;;5034613;28;20037;-70
2022/01/08 14:48:57;;;;;;;26.55;15.65;;;;;;;;;;5034727;28;20037;-71
2022/01/08 14:51:49;;;;;;;26.85;16.00;;;;;;;;;;5034420;28;20064;-72
2022/01/08 14:54:25;;;;;;;28.15;15.65;;;;;;;;;;5034317;28;20053;-72
2022/01/08 14:56:53;;;;;;;31.27;17.58;;;;;;;;;;5032070;28;20046;-72
2022/01/08 14:59:45;;;;;;;32.38;17.55;;;;;;;;;;5016729;28;20064;-71
2022/01/08 15:02:14;;;;;;;31.85;18.65;;;;;;;;;;5034678;28;20068;-71
2022/01/08 15:04:44;;;;;;;29.80;15.57;;;;;;;;;;5034248;28;20439;-71
2022/01/08 15:07:19;;;;;;;29.95;16.30;;;;;;;;;;5032802;28;20549;-71
2022/01/08 15:09:51;;;;;;;28.85;17.13;;;;;;;;;;5028856;28;20120;-71
2022/01/08 15:12:19;;;;;;;28.40;15.73;;;;;;;;;;5020456;28;20492;-71
2022/01/08 15:15:12;;;;;;;28.55;17.23;;;;;;;;;;5013165;28;20034;-71
2022/01/08 15:18:05;;;;;;;31.77;16.90;;;;;;;;;;5014541;28;20050;-71
2022/01/08 15:20:33;;;;;;;33.67;19.85;;;;;;;;;;5019025;28;20095;-71
2022/01/08 15:23:02;;;;;;;32.28;18.40;;;;;;;;;;5029448;28;20546;-70
2022/01/08 15:25:30;;;;;;;36.03;19.58;;;;;;;;;;5029836;28;20049;-71
2022/01/08 15:27:58;;;;;;;32.88;18.60;;;;;;;;;;5027581;28;20485;-70
2022/01/08 15:30:26;;;;;;;33.33;18.73;;;;;;;;;;5028004;28;20044;-71
2022/01/08 15:32:56;;;;;;;35.55;20.27;;;;;;;;;;5024909;28;20049;-71
2022/01/08 15:35:27;;;;;;;41.38;22.33;;;;;;;;;;5052813;28;20053;-71
2022/01/08 15:37:57;;;;;;;43.03;25.20;;;;;;;;;;5037603;28;20062;-70
2022/01/08 15:40:24;;;;;;;38.22;21.23;;;;;;;;;;5024251;28;20551;-74
2022/01/08 15:42:55;;;;;;;40.28;23.08;;;;;;;;;;5013738;28;20400;-74
2022/01/08 15:45:24;;;;;;;51.53;24.35;;;;;;;;;;5026948;28;20556;-74
2022/01/08 15:47:54;;;;;;;51.50;23.98;;;;;;;;;;5044528;28;20042;-73
2022/01/08 15:50:22;;;;;;;45.78;21.40;;;;;;;;;;5026723;28;20045;-73
2022/01/08 15:52:49;;;;;;;45.00;23.00;;;;;;;;;;5032820;28;20033;-73
2022/01/08 15:55:20;;;;;;;34.42;19.27;;;;;;;;;;5032090;28;20042;-74
2022/01/08 15:57:48;;;;;;;34.03;19.17;;;;;;;;;;5065482;28;20471;-73
2022/01/08 16:00:18;;;;;;;39.72;21.60;;;;;;;;;;5033058;28;20052;-73
2022/01/08 16:02:48;;;;;;;35.80;18.98;;;;;;;;;;5033281;28;20112;-73
2022/01/08 16:05:19;;;;;;;40.17;21.60;;;;;;;;;;5033337;28;20050;-73
2022/01/08 16:07:49;;;;;;;44.03;22.13;;;;;;;;;;5032749;28;20041;-71
2022/01/08 16:10:17;;;;;;;41.67;21.27;;;;;;;;;;5043805;28;20069;-73
2022/01/08 16:12:47;;;;;;;40.58;20.70;;;;;;;;;;5012253;28;20038;-74